sensor_id;sensor_type;location;lat;lon;timestamp;P1;durP1;ratioP1;P2;durP2;ratioP2
74892;SDS011;63446;56.272;43.922;2024-03-22T00:00:57;16.65;;;4.28;;
74892;SDS011;63446;56.272;43.922;2024-03-22T00:03:22;11.67;;;3.97;;
74892;SDS011;63446;56.272;43.922;2024-03-22T00:05:48;10.32;;;3.40;;
74892;SDS011;63446;56.272;43.922;2024-03-22T00:08:14;15.43;;;3.63;;
74892;SDS011;63446;56.272;43.922;2024-03-22T00:10:40;11.55;;;3.22;;
74892;SDS011;63446;56.272;43.922;2024-03-22T00:13:06;13.10;;;4.83;;
74892;SDS011;63446;56.272;43.922;2024-03-22T00:15:31;15.07;;;4.28;;
74892;SDS011;63446;56.272;43.922;2024-03-22T00:17:57;12.70;;;4.00;;
74892;SDS011;63446;56.272;43.922;2024-03-22T00:20:23;14.25;;;4.57;;
74892;SDS011;63446;56.272;43.922;2024-03-22T00:22:49;13.57;;;4.60;;
74892;SDS011;63446;56.272;43.922;2024-03-22T00:25:14;14.10;;;5.35;;
74892;SDS011;63446;56.272;43.922;2024-03-22T00:27:40;14.73;;;4.93;;
74892;SDS011;63446;56.272;43.922;2024-03-22T00:30:06;13.43;;;4.88;;
74892;SDS011;63446;56.272;43.922;2024-03-22T00:32:32;17.27;;;5.50;;
74892;SDS011;63446;56.272;43.922;2024-03-22T00:34:58;23.40;;;4.97;;
74892;SDS011;63446;56.272;43.922;2024-03-22T00:37:24;16.63;;;5.07;;
74892;SDS011;63446;56.272;43.922;2024-03-22T00:39:49;14.77;;;5.45;;
74892;SDS011;63446;56.272;43.922;2024-03-22T00:42:16;18.97;;;5.30;;
74892;SDS011;63446;56.272;43.922;2024-03-22T00:44:41;18.38;;;4.88;;
74892;SDS011;63446;56.272;43.922;2024-03-22T00:47:07;17.37;;;5.37;;
74892;SDS011;63446;56.272;43.922;2024-03-22T00:49:33;19.35;;;4.80;;
74892;SDS011;63446;56.272;43.922;2024-03-22T00:51:59;13.03;;;5.53;;
74892;SDS011;63446;56.272;43.922;2024-03-22T00:54:25;18.88;;;5.95;;
74892;SDS011;63446;56.272;43.922;2024-03-22T00:56:51;13.97;;;5.47;;
74892;SDS011;63446;56.272;43.922;2024-03-22T00:59:16;15.60;;;5.47;;
74892;SDS011;63446;56.272;43.922;2024-03-22T01:01:43;19.45;;;6.05;;
74892;SDS011;63446;56.272;43.922;2024-03-22T01:04:09;20.70;;;5.97;;
74892;SDS011;63446;56.272;43.922;2024-03-22T01:06:35;13.63;;;5.38;;
74892;SDS011;63446;56.272;43.922;2024-03-22T01:09:00;18.90;;;6.53;;
74892;SDS011;63446;56.272;43.922;2024-03-22T01:11:29;19.42;;;5.65;;
74892;SDS011;63446;56.272;43.922;2024-03-22T01:13:54;21.35;;;6.30;;
74892;SDS011;63446;56.272;43.922;2024-03-22T01:16:20;21.23;;;6.53;;
74892;SDS011;63446;56.272;43.922;2024-03-22T01:18:46;16.55;;;5.55;;
74892;SDS011;63446;56.272;43.922;2024-03-22T01:21:11;16.67;;;5.73;;
74892;SDS011;63446;56.272;43.922;2024-03-22T01:23:37;12.73;;;5.25;;
74892;SDS011;63446;56.272;43.922;2024-03-22T01:26:03;17.20;;;4.90;;
74892;SDS011;63446;56.272;43.922;2024-03-22T01:28:29;11.50;;;4.70;;
74892;SDS011;63446;56.272;43.922;2024-03-22T01:30:55;13.15;;;4.40;;
74892;SDS011;63446;56.272;43.922;2024-03-22T01:33:21;16.27;;;4.83;;
74892;SDS011;63446;56.272;43.922;2024-03-22T01:35:46;14.57;;;4.68;;
74892;SDS011;63446;56.272;43.922;2024-03-22T01:38:13;15.63;;;5.82;;
74892;SDS011;63446;56.272;43.922;2024-03-22T01:40:39;17.40;;;6.17;;
74892;SDS011;63446;56.272;43.922;2024-03-22T01:43:04;19.73;;;5.43;;
74892;SDS011;63446;56.272;43.922;2024-03-22T01:45:31;20.20;;;6.50;;
74892;SDS011;63446;56.272;43.922;2024-03-22T01:47:58;16.48;;;5.47;;
74892;SDS011;63446;56.272;43.922;2024-03-22T01:50:25;17.02;;;5.80;;
74892;SDS011;63446;56.272;43.922;2024-03-22T01:52:51;16.33;;;6.22;;
74892;SDS011;63446;56.272;43.922;2024-03-22T01:55:18;14.83;;;5.77;;
74892;SDS011;63446;56.272;43.922;2024-03-22T01:57:46;16.02;;;5.65;;
74892;SDS011;63446;56.272;43.922;2024-03-22T02:00:15;16.45;;;5.70;;
74892;SDS011;63446;56.272;43.922;2024-03-22T02:02:41;18.42;;;5.45;;
74892;SDS011;63446;56.272;43.922;2024-03-22T02:05:13;14.43;;;5.50;;
74892;SDS011;63446;56.272;43.922;2024-03-22T02:07:41;16.25;;;5.57;;
74892;SDS011;63446;56.272;43.922;2024-03-22T02:10:08;17.42;;;5.72;;
74892;SDS011;63446;56.272;43.922;2024-03-22T02:12:39;16.42;;;6.13;;
74892;SDS011;63446;56.272;43.922;2024-03-22T02:15:07;19.43;;;5.57;;
74892;SDS011;63446;56.272;43.922;2024-03-22T02:17:35;17.85;;;6.20;;
74892;SDS011;63446;56.272;43.922;2024-03-22T02:20:02;19.60;;;6.20;;
74892;SDS011;63446;56.272;43.922;2024-03-22T02:22:30;21.25;;;6.20;;
74892;SDS011;63446;56.272;43.922;2024-03-22T02:24:56;19.73;;;5.43;;
74892;SDS011;63446;56.272;43.922;2024-03-22T02:27:22;18.00;;;5.45;;
74892;SDS011;63446;56.272;43.922;2024-03-22T02:29:48;22.30;;;5.45;;
74892;SDS011;63446;56.272;43.922;2024-03-22T02:32:14;14.87;;;5.13;;
74892;SDS011;63446;56.272;43.922;2024-03-22T02:34:40;13.82;;;4.95;;
74892;SDS011;63446;56.272;43.922;2024-03-22T02:37:06;12.82;;;4.07;;
74892;SDS011;63446;56.272;43.922;2024-03-22T02:39:33;12.03;;;4.00;;
74892;SDS011;63446;56.272;43.922;2024-03-22T02:41:59;14.02;;;4.80;;
74892;SDS011;63446;56.272;43.922;2024-03-22T02:44:24;18.60;;;5.45;;
74892;SDS011;63446;56.272;43.922;2024-03-22T02:46:50;17.23;;;5.20;;
74892;SDS011;63446;56.272;43.922;2024-03-22T02:49:16;13.13;;;4.70;;
74892;SDS011;63446;56.272;43.922;2024-03-22T02:51:42;15.97;;;4.80;;
74892;SDS011;63446;56.272;43.922;2024-03-22T02:54:08;13.68;;;4.07;;
74892;SDS011;63446;56.272;43.922;2024-03-22T02:56:34;16.10;;;4.60;;
74892;SDS011;63446;56.272;43.922;2024-03-22T02:59:00;13.23;;;5.27;;
74892;SDS011;63446;56.272;43.922;2024-03-22T03:01:26;15.15;;;4.20;;
74892;SDS011;63446;56.272;43.922;2024-03-22T03:03:52;9.20;;;3.63;;
74892;SDS011;63446;56.272;43.922;2024-03-22T03:06:18;14.52;;;4.97;;
74892;SDS011;63446;56.272;43.922;2024-03-22T03:08:45;14.95;;;4.05;;
74892;SDS011;63446;56.272;43.922;2024-03-22T03:11:12;14.02;;;4.40;;
74892;SDS011;63446;56.272;43.922;2024-03-22T03:13:40;8.70;;;3.73;;
74892;SDS011;63446;56.272;43.922;2024-03-22T03:16:06;13.57;;;4.07;;
74892;SDS011;63446;56.272;43.922;2024-03-22T03:18:32;13.55;;;4.60;;
74892;SDS011;63446;56.272;43.922;2024-03-22T03:20:58;14.17;;;4.53;;
74892;SDS011;63446;56.272;43.922;2024-03-22T03:23:24;12.68;;;4.35;;
74892;SDS011;63446;56.272;43.922;2024-03-22T03:25:50;15.87;;;4.30;;
74892;SDS011;63446;56.272;43.922;2024-03-22T03:28:15;16.75;;;4.10;;
74892;SDS011;63446;56.272;43.922;2024-03-22T03:30:41;15.43;;;4.22;;
74892;SDS011;63446;56.272;43.922;2024-03-22T03:33:07;13.50;;;4.20;;
74892;SDS011;63446;56.272;43.922;2024-03-22T03:35:33;15.63;;;4.25;;
74892;SDS011;63446;56.272;43.922;2024-03-22T03:38:00;16.30;;;4.38;;
74892;SDS011;63446;56.272;43.922;2024-03-22T03:40:26;15.82;;;4.95;;
74892;SDS011;63446;56.272;43.922;2024-03-22T03:42:55;18.90;;;5.40;;
74892;SDS011;63446;56.272;43.922;2024-03-22T03:45:36;12.30;;;4.82;;
74892;SDS011;63446;56.272;43.922;2024-03-22T03:48:02;19.27;;;5.75;;
74892;SDS011;63446;56.272;43.922;2024-03-22T03:50:28;24.33;;;6.00;;
74892;SDS011;63446;56.272;43.922;2024-03-22T03:52:54;14.45;;;6.30;;
74892;SDS011;63446;56.272;43.922;2024-03-22T03:55:21;17.63;;;5.13;;
74892;SDS011;63446;56.272;43.922;2024-03-22T03:57:49;21.17;;;6.57;;
74892;SDS011;63446;56.272;43.922;2024-03-22T04:00:16;18.20;;;5.87;;
74892;SDS011;63446;56.272;43.922;2024-03-22T04:02:43;24.13;;;6.80;;
74892;SDS011;63446;56.272;43.922;2024-03-22T04:05:09;21.05;;;6.32;;
74892;SDS011;63446;56.272;43.922;2024-03-22T04:07:35;21.52;;;6.43;;
74892;SDS011;63446;56.272;43.922;2024-03-22T04:10:01;20.10;;;6.90;;
74892;SDS011;63446;56.272;43.922;2024-03-22T04:12:29;21.77;;;7.30;;
74892;SDS011;63446;56.272;43.922;2024-03-22T04:14:55;16.40;;;6.30;;
74892;SDS011;63446;56.272;43.922;2024-03-22T04:17:21;17.80;;;6.43;;
74892;SDS011;63446;56.272;43.922;2024-03-22T04:19:49;20.75;;;6.38;;
74892;SDS011;63446;56.272;43.922;2024-03-22T04:22:15;28.85;;;7.43;;
74892;SDS011;63446;56.272;43.922;2024-03-22T04:24:41;20.00;;;6.80;;
74892;SDS011;63446;56.272;43.922;2024-03-22T04:27:07;25.85;;;8.20;;
74892;SDS011;63446;56.272;43.922;2024-03-22T04:29:33;27.50;;;9.23;;
74892;SDS011;63446;56.272;43.922;2024-03-22T04:31:58;24.35;;;8.60;;
74892;SDS011;63446;56.272;43.922;2024-03-22T04:34:24;25.42;;;8.77;;
74892;SDS011;63446;56.272;43.922;2024-03-22T04:36:50;21.70;;;8.10;;
74892;SDS011;63446;56.272;43.922;2024-03-22T04:39:19;17.77;;;7.72;;
74892;SDS011;63446;56.272;43.922;2024-03-22T04:41:45;25.90;;;9.05;;
74892;SDS011;63446;56.272;43.922;2024-03-22T04:44:11;26.75;;;7.50;;
74892;SDS011;63446;56.272;43.922;2024-03-22T04:46:37;18.80;;;7.30;;
74892;SDS011;63446;56.272;43.922;2024-03-22T04:49:03;20.15;;;7.40;;
74892;SDS011;63446;56.272;43.922;2024-03-22T04:51:28;20.07;;;7.33;;
74892;SDS011;63446;56.272;43.922;2024-03-22T04:53:54;24.73;;;8.45;;
74892;SDS011;63446;56.272;43.922;2024-03-22T04:56:20;31.27;;;9.87;;
74892;SDS011;63446;56.272;43.922;2024-03-22T04:58:46;29.23;;;8.95;;
74892;SDS011;63446;56.272;43.922;2024-03-22T05:01:12;28.02;;;8.40;;
74892;SDS011;63446;56.272;43.922;2024-03-22T05:03:38;23.80;;;9.10;;
74892;SDS011;63446;56.272;43.922;2024-03-22T05:06:06;24.27;;;8.70;;
74892;SDS011;63446;56.272;43.922;2024-03-22T05:08:32;22.95;;;10.98;;
74892;SDS011;63446;56.272;43.922;2024-03-22T05:10:58;26.85;;;12.13;;
74892;SDS011;63446;56.272;43.922;2024-03-22T05:13:24;30.53;;;12.73;;
74892;SDS011;63446;56.272;43.922;2024-03-22T05:15:50;30.87;;;12.57;;
74892;SDS011;63446;56.272;43.922;2024-03-22T05:18:15;30.33;;;11.87;;
74892;SDS011;63446;56.272;43.922;2024-03-22T05:20:41;39.83;;;14.60;;
74892;SDS011;63446;56.272;43.922;2024-03-22T05:23:07;40.67;;;14.27;;
74892;SDS011;63446;56.272;43.922;2024-03-22T05:25:33;35.60;;;13.17;;
74892;SDS011;63446;56.272;43.922;2024-03-22T05:27:59;37.35;;;12.90;;
74892;SDS011;63446;56.272;43.922;2024-03-22T05:30:25;34.88;;;13.10;;
74892;SDS011;63446;56.272;43.922;2024-03-22T05:32:50;53.00;;;16.37;;
74892;SDS011;63446;56.272;43.922;2024-03-22T05:35:17;42.40;;;15.45;;
74892;SDS011;63446;56.272;43.922;2024-03-22T05:37:43;41.13;;;13.77;;
74892;SDS011;63446;56.272;43.922;2024-03-22T05:40:09;35.90;;;13.03;;
74892;SDS011;63446;56.272;43.922;2024-03-22T05:42:36;31.35;;;11.55;;
74892;SDS011;63446;56.272;43.922;2024-03-22T05:45:01;26.17;;;9.70;;
74892;SDS011;63446;56.272;43.922;2024-03-22T05:47:30;28.65;;;11.85;;
74892;SDS011;63446;56.272;43.922;2024-03-22T05:49:57;24.08;;;10.23;;
74892;SDS011;63446;56.272;43.922;2024-03-22T05:52:23;20.67;;;7.88;;
74892;SDS011;63446;56.272;43.922;2024-03-22T05:54:49;21.30;;;6.80;;
74892;SDS011;63446;56.272;43.922;2024-03-22T05:57:15;24.10;;;6.45;;
74892;SDS011;63446;56.272;43.922;2024-03-22T05:59:40;18.10;;;6.23;;
74892;SDS011;63446;56.272;43.922;2024-03-22T06:02:07;20.65;;;6.85;;
74892;SDS011;63446;56.272;43.922;2024-03-22T06:04:32;24.50;;;7.10;;
74892;SDS011;63446;56.272;43.922;2024-03-22T06:06:59;25.23;;;7.20;;
74892;SDS011;63446;56.272;43.922;2024-03-22T06:09:26;22.80;;;7.22;;
74892;SDS011;63446;56.272;43.922;2024-03-22T06:12:24;21.63;;;7.13;;
74892;SDS011;63446;56.272;43.922;2024-03-22T06:14:50;26.70;;;7.07;;
74892;SDS011;63446;56.272;43.922;2024-03-22T06:17:16;22.97;;;7.20;;
74892;SDS011;63446;56.272;43.922;2024-03-22T06:19:42;27.33;;;7.97;;
74892;SDS011;63446;56.272;43.922;2024-03-22T06:22:08;24.83;;;7.43;;
74892;SDS011;63446;56.272;43.922;2024-03-22T06:24:34;21.98;;;7.32;;
74892;SDS011;63446;56.272;43.922;2024-03-22T06:27:00;20.80;;;6.73;;
74892;SDS011;63446;56.272;43.922;2024-03-22T06:29:26;28.95;;;9.95;;
74892;SDS011;63446;56.272;43.922;2024-03-22T06:31:53;25.48;;;7.65;;
74892;SDS011;63446;56.272;43.922;2024-03-22T06:34:19;18.47;;;6.27;;
74892;SDS011;63446;56.272;43.922;2024-03-22T06:36:45;24.75;;;7.00;;
74892;SDS011;63446;56.272;43.922;2024-03-22T06:39:10;30.80;;;7.22;;
74892;SDS011;63446;56.272;43.922;2024-03-22T06:41:36;27.73;;;7.57;;
74892;SDS011;63446;56.272;43.922;2024-03-22T06:44:03;22.00;;;7.85;;
74892;SDS011;63446;56.272;43.922;2024-03-22T06:46:29;23.23;;;7.70;;
74892;SDS011;63446;56.272;43.922;2024-03-22T06:48:55;21.87;;;7.07;;
74892;SDS011;63446;56.272;43.922;2024-03-22T06:51:20;31.20;;;6.93;;
74892;SDS011;63446;56.272;43.922;2024-03-22T06:53:46;29.57;;;8.67;;
74892;SDS011;63446;56.272;43.922;2024-03-22T06:56:14;29.70;;;8.63;;
74892;SDS011;63446;56.272;43.922;2024-03-22T06:58:40;29.95;;;9.10;;
74892;SDS011;63446;56.272;43.922;2024-03-22T07:01:06;32.20;;;8.82;;
74892;SDS011;63446;56.272;43.922;2024-03-22T07:03:31;31.93;;;8.00;;
74892;SDS011;63446;56.272;43.922;2024-03-22T07:05:57;33.70;;;9.93;;
74892;SDS011;63446;56.272;43.922;2024-03-22T07:08:26;32.60;;;10.23;;
74892;SDS011;63446;56.272;43.922;2024-03-22T07:10:53;25.75;;;8.23;;
74892;SDS011;63446;56.272;43.922;2024-03-22T07:13:20;24.02;;;7.70;;
74892;SDS011;63446;56.272;43.922;2024-03-22T07:15:47;25.70;;;7.47;;
74892;SDS011;63446;56.272;43.922;2024-03-22T07:18:13;25.30;;;7.45;;
74892;SDS011;63446;56.272;43.922;2024-03-22T07:20:44;21.70;;;6.10;;
74892;SDS011;63446;56.272;43.922;2024-03-22T07:23:10;25.80;;;7.50;;
74892;SDS011;63446;56.272;43.922;2024-03-22T07:25:37;22.40;;;6.90;;
74892;SDS011;63446;56.272;43.922;2024-03-22T07:28:02;21.35;;;5.80;;
74892;SDS011;63446;56.272;43.922;2024-03-22T07:30:28;17.52;;;5.30;;
74892;SDS011;63446;56.272;43.922;2024-03-22T07:32:54;23.23;;;6.15;;
74892;SDS011;63446;56.272;43.922;2024-03-22T07:35:20;16.00;;;5.10;;
74892;SDS011;63446;56.272;43.922;2024-03-22T07:37:45;19.02;;;5.32;;
74892;SDS011;63446;56.272;43.922;2024-03-22T07:40:11;20.10;;;6.07;;
74892;SDS011;63446;56.272;43.922;2024-03-22T07:42:37;19.13;;;5.20;;
74892;SDS011;63446;56.272;43.922;2024-03-22T07:45:03;29.63;;;5.80;;
74892;SDS011;63446;56.272;43.922;2024-03-22T07:47:30;20.02;;;5.38;;
74892;SDS011;63446;56.272;43.922;2024-03-22T07:49:56;14.55;;;5.13;;
74892;SDS011;63446;56.272;43.922;2024-03-22T07:52:22;23.10;;;5.27;;
74892;SDS011;63446;56.272;43.922;2024-03-22T07:54:47;15.20;;;5.00;;
74892;SDS011;63446;56.272;43.922;2024-03-22T07:57:13;16.93;;;5.03;;
74892;SDS011;63446;56.272;43.922;2024-03-22T07:59:39;14.25;;;5.32;;
74892;SDS011;63446;56.272;43.922;2024-03-22T08:02:05;16.70;;;5.33;;
74892;SDS011;63446;56.272;43.922;2024-03-22T08:04:30;15.45;;;4.72;;
74892;SDS011;63446;56.272;43.922;2024-03-22T08:06:56;12.83;;;4.67;;
74892;SDS011;63446;56.272;43.922;2024-03-22T08:09:24;14.85;;;4.85;;
74892;SDS011;63446;56.272;43.922;2024-03-22T08:11:50;23.95;;;5.25;;
74892;SDS011;63446;56.272;43.922;2024-03-22T08:14:16;16.85;;;5.18;;
74892;SDS011;63446;56.272;43.922;2024-03-22T08:16:42;23.83;;;5.77;;
74892;SDS011;63446;56.272;43.922;2024-03-22T08:19:08;18.70;;;5.30;;
74892;SDS011;63446;56.272;43.922;2024-03-22T08:21:33;24.47;;;5.00;;
74892;SDS011;63446;56.272;43.922;2024-03-22T08:24:00;14.07;;;5.05;;
74892;SDS011;63446;56.272;43.922;2024-03-22T08:26:25;16.40;;;5.13;;
74892;SDS011;63446;56.272;43.922;2024-03-22T08:28:51;14.07;;;5.03;;
74892;SDS011;63446;56.272;43.922;2024-03-22T08:31:18;12.32;;;5.38;;
74892;SDS011;63446;56.272;43.922;2024-03-22T08:33:49;16.00;;;5.55;;
74892;SDS011;63446;56.272;43.922;2024-03-22T08:36:15;20.47;;;4.60;;
74892;SDS011;63446;56.272;43.922;2024-03-22T08:38:41;20.48;;;8.77;;
74892;SDS011;63446;56.272;43.922;2024-03-22T08:41:07;13.27;;;5.40;;
74892;SDS011;63446;56.272;43.922;2024-03-22T08:43:33;17.30;;;4.88;;
74892;SDS011;63446;56.272;43.922;2024-03-22T08:46:00;18.55;;;5.20;;
74892;SDS011;63446;56.272;43.922;2024-03-22T08:48:26;12.23;;;4.70;;
74892;SDS011;63446;56.272;43.922;2024-03-22T08:50:51;16.08;;;4.80;;
74892;SDS011;63446;56.272;43.922;2024-03-22T08:53:18;12.95;;;4.32;;
74892;SDS011;63446;56.272;43.922;2024-03-22T08:55:47;15.47;;;4.80;;
74892;SDS011;63446;56.272;43.922;2024-03-22T08:58:14;18.80;;;5.18;;
74892;SDS011;63446;56.272;43.922;2024-03-22T09:00:41;20.90;;;5.22;;
74892;SDS011;63446;56.272;43.922;2024-03-22T09:03:07;16.70;;;5.05;;
74892;SDS011;63446;56.272;43.922;2024-03-22T09:05:33;14.10;;;4.90;;
74892;SDS011;63446;56.272;43.922;2024-03-22T09:07:59;12.43;;;4.85;;
74892;SDS011;63446;56.272;43.922;2024-03-22T09:10:27;12.90;;;4.50;;
74892;SDS011;63446;56.272;43.922;2024-03-22T09:12:53;11.83;;;4.83;;
74892;SDS011;63446;56.272;43.922;2024-03-22T09:15:20;17.38;;;5.10;;
74892;SDS011;63446;56.272;43.922;2024-03-22T09:17:47;13.90;;;5.20;;
74892;SDS011;63446;56.272;43.922;2024-03-22T09:20:12;14.40;;;5.47;;
74892;SDS011;63446;56.272;43.922;2024-03-22T09:22:39;13.52;;;5.78;;
74892;SDS011;63446;56.272;43.922;2024-03-22T09:25:05;17.10;;;5.35;;
74892;SDS011;63446;56.272;43.922;2024-03-22T09:27:31;12.30;;;5.70;;
74892;SDS011;63446;56.272;43.922;2024-03-22T09:29:58;16.05;;;6.30;;
74892;SDS011;63446;56.272;43.922;2024-03-22T09:32:25;17.02;;;6.18;;
74892;SDS011;63446;56.272;43.922;2024-03-22T09:34:52;14.50;;;5.70;;
74892;SDS011;63446;56.272;43.922;2024-03-22T09:37:18;18.23;;;6.20;;
74892;SDS011;63446;56.272;43.922;2024-03-22T09:39:44;18.87;;;6.33;;
74892;SDS011;63446;56.272;43.922;2024-03-22T09:42:11;15.60;;;6.43;;
74892;SDS011;63446;56.272;43.922;2024-03-22T09:44:47;21.58;;;6.60;;
74892;SDS011;63446;56.272;43.922;2024-03-22T09:47:17;19.13;;;6.90;;
74892;SDS011;63446;56.272;43.922;2024-03-22T09:49:44;25.80;;;7.35;;
74892;SDS011;63446;56.272;43.922;2024-03-22T09:52:13;19.77;;;6.93;;
74892;SDS011;63446;56.272;43.922;2024-03-22T09:54:43;18.88;;;7.25;;
74892;SDS011;63446;56.272;43.922;2024-03-22T09:57:14;19.00;;;6.35;;
74892;SDS011;63446;56.272;43.922;2024-03-22T09:59:46;16.17;;;5.43;;
74892;SDS011;63446;56.272;43.922;2024-03-22T10:02:12;14.35;;;4.85;;
74892;SDS011;63446;56.272;43.922;2024-03-22T10:04:40;17.35;;;5.80;;
74892;SDS011;63446;56.272;43.922;2024-03-22T10:07:07;15.98;;;5.50;;
74892;SDS011;63446;56.272;43.922;2024-03-22T10:09:34;14.98;;;6.20;;
74892;SDS011;63446;56.272;43.922;2024-03-22T10:12:00;16.17;;;5.77;;
74892;SDS011;63446;56.272;43.922;2024-03-22T10:14:26;15.00;;;5.65;;
74892;SDS011;63446;56.272;43.922;2024-03-22T10:16:52;18.10;;;5.87;;
74892;SDS011;63446;56.272;43.922;2024-03-22T10:19:21;17.10;;;5.50;;
74892;SDS011;63446;56.272;43.922;2024-03-22T10:21:48;12.07;;;4.78;;
74892;SDS011;63446;56.272;43.922;2024-03-22T10:24:24;15.88;;;5.35;;
74892;SDS011;63446;56.272;43.922;2024-03-22T10:26:50;13.97;;;5.30;;
74892;SDS011;63446;56.272;43.922;2024-03-22T10:29:15;14.32;;;5.07;;
74892;SDS011;63446;56.272;43.922;2024-03-22T10:31:41;11.77;;;4.93;;
74892;SDS011;63446;56.272;43.922;2024-03-22T10:34:09;12.27;;;5.07;;
74892;SDS011;63446;56.272;43.922;2024-03-22T10:36:36;12.95;;;4.90;;
74892;SDS011;63446;56.272;43.922;2024-03-22T10:39:02;13.43;;;5.35;;
74892;SDS011;63446;56.272;43.922;2024-03-22T10:41:29;17.30;;;6.65;;
74892;SDS011;63446;56.272;43.922;2024-03-22T10:43:55;13.75;;;5.68;;
74892;SDS011;63446;56.272;43.922;2024-03-22T10:46:24;16.98;;;5.30;;
74892;SDS011;63446;56.272;43.922;2024-03-22T10:48:55;12.63;;;4.85;;
74892;SDS011;63446;56.272;43.922;2024-03-22T10:51:22;11.95;;;5.32;;
74892;SDS011;63446;56.272;43.922;2024-03-22T10:53:50;18.05;;;5.00;;
74892;SDS011;63446;56.272;43.922;2024-03-22T10:56:18;15.37;;;4.83;;
74892;SDS011;63446;56.272;43.922;2024-03-22T10:58:44;12.07;;;5.10;;
74892;SDS011;63446;56.272;43.922;2024-03-22T11:01:21;16.83;;;5.60;;
74892;SDS011;63446;56.272;43.922;2024-03-22T11:03:48;13.45;;;5.35;;
74892;SDS011;63446;56.272;43.922;2024-03-22T11:06:19;15.70;;;5.67;;
74892;SDS011;63446;56.272;43.922;2024-03-22T11:08:51;13.88;;;6.00;;
74892;SDS011;63446;56.272;43.922;2024-03-22T11:11:18;13.13;;;5.30;;
74892;SDS011;63446;56.272;43.922;2024-03-22T11:13:46;14.90;;;5.70;;
74892;SDS011;63446;56.272;43.922;2024-03-22T11:16:16;18.45;;;6.68;;
74892;SDS011;63446;56.272;43.922;2024-03-22T11:18:42;15.60;;;6.10;;
74892;SDS011;63446;56.272;43.922;2024-03-22T11:21:08;14.30;;;5.68;;
74892;SDS011;63446;56.272;43.922;2024-03-22T11:23:35;15.63;;;6.75;;
74892;SDS011;63446;56.272;43.922;2024-03-22T11:26:02;16.50;;;6.37;;
74892;SDS011;63446;56.272;43.922;2024-03-22T11:28:29;16.95;;;6.25;;
74892;SDS011;63446;56.272;43.922;2024-03-22T11:30:56;13.65;;;5.80;;
74892;SDS011;63446;56.272;43.922;2024-03-22T11:33:22;14.65;;;4.97;;
74892;SDS011;63446;56.272;43.922;2024-03-22T11:35:48;12.93;;;5.15;;
74892;SDS011;63446;56.272;43.922;2024-03-22T11:38:15;14.15;;;5.22;;
74892;SDS011;63446;56.272;43.922;2024-03-22T11:40:43;16.00;;;5.90;;
74892;SDS011;63446;56.272;43.922;2024-03-22T11:43:09;11.50;;;4.90;;
74892;SDS011;63446;56.272;43.922;2024-03-22T11:45:37;13.10;;;5.38;;
74892;SDS011;63446;56.272;43.922;2024-03-22T11:48:03;16.58;;;6.47;;
74892;SDS011;63446;56.272;43.922;2024-03-22T11:50:29;15.23;;;6.05;;
74892;SDS011;63446;56.272;43.922;2024-03-22T11:52:55;16.08;;;6.05;;
74892;SDS011;63446;56.272;43.922;2024-03-22T11:55:21;13.57;;;6.80;;
74892;SDS011;63446;56.272;43.922;2024-03-22T11:57:50;20.20;;;8.10;;
74892;SDS011;63446;56.272;43.922;2024-03-22T12:00:17;19.17;;;8.15;;
74892;SDS011;63446;56.272;43.922;2024-03-22T12:02:45;19.48;;;6.63;;
74892;SDS011;63446;56.272;43.922;2024-03-22T12:05:11;18.33;;;7.70;;
74892;SDS011;63446;56.272;43.922;2024-03-22T12:07:37;18.33;;;5.47;;
74892;SDS011;63446;56.272;43.922;2024-03-22T12:10:06;12.32;;;4.20;;
74892;SDS011;63446;56.272;43.922;2024-03-22T12:12:32;14.48;;;4.10;;
74892;SDS011;63446;56.272;43.922;2024-03-22T12:14:58;15.60;;;5.55;;
74892;SDS011;63446;56.272;43.922;2024-03-22T12:17:24;14.57;;;4.63;;
74892;SDS011;63446;56.272;43.922;2024-03-22T12:19:49;11.33;;;4.10;;
74892;SDS011;63446;56.272;43.922;2024-03-22T12:22:15;17.02;;;3.85;;
74892;SDS011;63446;56.272;43.922;2024-03-22T12:24:41;13.25;;;4.35;;
74892;SDS011;63446;56.272;43.922;2024-03-22T12:27:07;12.13;;;3.90;;
74892;SDS011;63446;56.272;43.922;2024-03-22T12:29:33;17.45;;;3.67;;
74892;SDS011;63446;56.272;43.922;2024-03-22T12:32:01;16.77;;;3.65;;
74892;SDS011;63446;56.272;43.922;2024-03-22T12:34:30;13.50;;;4.20;;
74892;SDS011;63446;56.272;43.922;2024-03-22T12:36:59;11.45;;;3.25;;
74892;SDS011;63446;56.272;43.922;2024-03-22T12:39:26;12.13;;;3.50;;
74892;SDS011;63446;56.272;43.922;2024-03-22T12:41:52;16.55;;;3.40;;
74892;SDS011;63446;56.272;43.922;2024-03-22T12:44:20;11.75;;;4.53;;
74892;SDS011;63446;56.272;43.922;2024-03-22T12:46:47;14.77;;;2.78;;
74892;SDS011;63446;56.272;43.922;2024-03-22T12:49:13;10.35;;;2.80;;
74892;SDS011;63446;56.272;43.922;2024-03-22T12:51:39;13.60;;;2.70;;
74892;SDS011;63446;56.272;43.922;2024-03-22T12:54:06;17.00;;;2.90;;
74892;SDS011;63446;56.272;43.922;2024-03-22T12:56:33;15.30;;;3.00;;
74892;SDS011;63446;56.272;43.922;2024-03-22T12:58:59;18.08;;;3.25;;
74892;SDS011;63446;56.272;43.922;2024-03-22T13:01:25;21.58;;;2.90;;
74892;SDS011;63446;56.272;43.922;2024-03-22T13:03:51;16.98;;;3.78;;
74892;SDS011;63446;56.272;43.922;2024-03-22T13:06:17;10.50;;;3.00;;
74892;SDS011;63446;56.272;43.922;2024-03-22T13:08:43;13.88;;;3.10;;
74892;SDS011;63446;56.272;43.922;2024-03-22T13:11:09;10.35;;;2.83;;
74892;SDS011;63446;56.272;43.922;2024-03-22T13:13:36;10.80;;;2.20;;
74892;SDS011;63446;56.272;43.922;2024-03-22T13:16:02;17.33;;;2.78;;
74892;SDS011;63446;56.272;43.922;2024-03-22T13:18:29;15.18;;;2.65;;
74892;SDS011;63446;56.272;43.922;2024-03-22T13:20:55;20.42;;;2.17;;
74892;SDS011;63446;56.272;43.922;2024-03-22T13:23:21;11.20;;;3.40;;
74892;SDS011;63446;56.272;43.922;2024-03-22T13:25:47;11.43;;;2.40;;
74892;SDS011;63446;56.272;43.922;2024-03-22T13:28:13;12.82;;;2.60;;
74892;SDS011;63446;56.272;43.922;2024-03-22T13:30:40;12.90;;;2.38;;
74892;SDS011;63446;56.272;43.922;2024-03-22T13:33:07;8.05;;;2.60;;
74892;SDS011;63446;56.272;43.922;2024-03-22T13:35:33;13.20;;;2.73;;
74892;SDS011;63446;56.272;43.922;2024-03-22T13:38:00;13.88;;;2.70;;
74892;SDS011;63446;56.272;43.922;2024-03-22T13:40:27;14.13;;;2.47;;
74892;SDS011;63446;56.272;43.922;2024-03-22T13:42:53;17.63;;;2.70;;
74892;SDS011;63446;56.272;43.922;2024-03-22T13:45:19;15.00;;;2.60;;
74892;SDS011;63446;56.272;43.922;2024-03-22T13:47:46;18.33;;;2.90;;
74892;SDS011;63446;56.272;43.922;2024-03-22T13:50:12;14.05;;;3.28;;
74892;SDS011;63446;56.272;43.922;2024-03-22T13:52:38;14.52;;;2.88;;
74892;SDS011;63446;56.272;43.922;2024-03-22T13:55:03;15.67;;;2.43;;
74892;SDS011;63446;56.272;43.922;2024-03-22T13:57:31;11.23;;;2.88;;
74892;SDS011;63446;56.272;43.922;2024-03-22T13:59:58;12.98;;;2.80;;
74892;SDS011;63446;56.272;43.922;2024-03-22T14:02:25;18.00;;;3.28;;
74892;SDS011;63446;56.272;43.922;2024-03-22T14:04:51;13.75;;;2.70;;
74892;SDS011;63446;56.272;43.922;2024-03-22T14:07:18;9.95;;;2.30;;
74892;SDS011;63446;56.272;43.922;2024-03-22T14:09:44;13.18;;;2.40;;
74892;SDS011;63446;56.272;43.922;2024-03-22T14:12:11;9.95;;;2.28;;
74892;SDS011;63446;56.272;43.922;2024-03-22T14:14:37;17.67;;;3.03;;
74892;SDS011;63446;56.272;43.922;2024-03-22T14:17:04;11.18;;;2.65;;